Terminal Aerodrome Forecast
Issued by NWS

Home | Current Version | Previous Version | Text Only | Print | Product List | Glossary On
Versions: 1 2 3 4 5 6 7 8 9 10 11 12
000
FTUS45 KABQ 291130
TAFGUP
TAF
KGUP 291130Z 2912/3012 14006KT P6SM VCSH BKN100
     FM291900 07008KT P6SM BKN060
      TEMPO 2921/3001 5SM -TSRA OVC040CB
     FM300100 10009KT P6SM VCSH OVC050=

USA.gov is the U.S. government's official web portal to all federal, state and local government web resources and services.